Time;durP1;ratioP1;P1;durP2;ratioP2;P2;SDS_P1;SDS_P2;PMS_P1;PMS_P2;Temp;Humidity;BMP_temperature;BMP_pressure;BME280_temperature;BME280_humidity;BME280_pressure;Samples;Min_cycle;Max_cycle;Signal;HPM_P1;HPM_P2
2023/10/18 00:00:58;;;;;;;10.87;9.23;;;5.20;99.90;;;;;;5034614;28;20172;-62
2023/10/18 00:03:30;;;;;;;12.37;10.87;;;5.10;99.90;;;;;;5034917;28;20206;-62
2023/10/18 00:05:58;;;;;;;15.67;10.07;;;5.00;99.90;;;;;;5017110;28;20591;-62
2023/10/18 00:08:23;;;;;;;12.17;10.70;;;4.90;99.90;;;;;;5035085;28;20186;-62
2023/10/18 00:10:56;;;;;;;14.03;10.77;;;4.80;99.90;;;;;;5034770;28;20207;-62
2023/10/18 00:13:25;;;;;;;11.53;10.30;;;4.70;99.90;;;;;;5034785;28;20191;-62
2023/10/18 00:15:53;;;;;;;12.90;9.27;;;4.60;99.90;;;;;;5016770;28;20179;-63
2023/10/18 00:18:20;;;;;;;12.43;10.37;;;4.60;99.90;;;;;;5016731;28;20190;-64
2023/10/18 00:20:46;;;;;;;19.73;10.43;;;4.50;99.90;;;;;;5034684;28;20190;-63
2023/10/18 00:23:12;;;;;;;12.07;10.77;;;4.50;99.90;;;;;;5034702;28;20175;-62
2023/10/18 00:25:38;;;;;;;14.20;10.40;;;4.50;99.90;;;;;;5034546;28;20553;-62
2023/10/18 00:28:04;;;;;;;12.37;10.47;;;4.60;99.90;;;;;;5034439;28;20206;-63
2023/10/18 00:30:30;;;;;;;12.57;10.20;;;4.50;99.90;;;;;;5034252;28;20236;-63
2023/10/18 00:32:57;;;;;;;15.37;10.20;;;4.50;99.90;;;;;;5034455;28;20644;-62
2023/10/18 00:35:29;;;;;;;12.67;10.13;;;4.50;99.90;;;;;;5034239;28;20341;-62
2023/10/18 00:37:55;;;;;;;14.47;10.03;;;4.50;99.90;;;;;;5034302;28;20274;-63
2023/10/18 00:45:52;;;;;;;12.43;10.10;;;4.50;99.90;;;;;;5034080;28;20171;-62
2023/10/18 00:48:20;;;;;;;11.83;9.90;;;4.40;99.90;;;;;;5033989;28;20175;-62
2023/10/18 00:50:52;;;;;;;11.67;9.93;;;4.40;99.90;;;;;;5033863;28;20198;-63
2023/10/18 00:53:22;;;;;;;14.07;10.10;;;4.30;99.90;;;;;;5034195;28;20266;-62
2023/10/18 00:55:52;;;;;;;14.93;10.60;;;4.30;99.90;;;;;;5034252;28;20168;-63
2023/10/18 00:58:20;;;;;;;11.53;10.33;;;4.30;99.90;;;;;;5034837;28;20189;-65
2023/10/18 01:00:48;;;;;;;13.53;10.80;;;4.30;99.90;;;;;;5033621;28;20184;-62
2023/10/18 01:03:38;;;;;;;11.73;10.00;;;4.20;99.90;;;;;;5033688;28;20210;-62
2023/10/18 01:06:21;;;;;;;12.73;10.90;;;4.10;99.90;;;;;;5033020;28;20202;-62
2023/10/18 01:08:48;;;;;;;13.40;10.47;;;4.10;99.90;;;;;;5033959;28;20277;-63
2023/10/18 01:11:18;;;;;;;12.47;10.37;;;4.20;99.90;;;;;;5034018;28;20662;-62
2023/10/18 01:13:47;;;;;;;11.00;9.90;;;4.10;99.90;;;;;;5033662;28;20199;-63
2023/10/18 01:16:14;;;;;;;15.00;10.60;;;4.10;99.90;;;;;;5033299;28;20202;-62
2023/10/18 01:18:47;;;;;;;12.27;10.20;;;4.10;99.90;;;;;;5015917;28;20615;-63
2023/10/18 01:21:16;;;;;;;12.53;10.10;;;4.10;99.90;;;;;;5034106;28;20186;-62
2023/10/18 01:24:04;;;;;;;11.03;9.83;;;4.10;99.90;;;;;;5015761;28;20234;-63
2023/10/18 01:26:37;;;;;;;12.63;9.83;;;4.10;99.90;;;;;;5033734;28;20155;-62
2023/10/18 01:29:04;;;;;;;11.53;10.33;;;4.10;99.90;;;;;;5015684;28;20186;-62
2023/10/18 01:31:29;;;;;;;13.73;10.93;;;4.10;99.90;;;;;;5033209;28;20580;-63
2023/10/18 01:33:55;;;;;;;12.50;9.43;;;4.10;99.90;;;;;;5033431;28;20225;-62
2023/10/18 01:36:22;;;;;;;10.80;9.67;;;4.10;99.90;;;;;;5033194;28;20233;-62
2023/10/18 01:38:52;;;;;;;11.80;10.07;;;4.00;99.90;;;;;;5033355;28;20667;-62
2023/10/18 01:41:25;;;;;;;12.80;10.53;;;4.00;99.90;;;;;;5033690;28;20167;-63
2023/10/18 01:43:52;;;;;;;11.60;9.90;;;4.00;99.90;;;;;;5033431;28;20206;-62
2023/10/18 01:46:18;;;;;;;11.67;10.47;;;4.00;99.90;;;;;;5032904;28;20212;-62
2023/10/18 01:48:50;;;;;;;17.43;11.60;;;3.90;99.90;;;;;;5033219;28;20550;-62
2023/10/18 01:51:16;;;;;;;13.47;11.10;;;3.80;99.90;;;;;;5033836;28;20191;-62
2023/10/18 01:53:43;;;;;;;12.67;10.70;;;3.80;99.90;;;;;;5015449;28;20199;-62
2023/10/18 01:56:09;;;;;;;14.10;10.73;;;3.80;99.90;;;;;;5033359;28;20178;-62
2023/10/18 01:58:35;;;;;;;11.40;10.07;;;3.80;99.90;;;;;;5033581;28;20183;-62
2023/10/18 02:01:08;;;;;;;12.43;10.20;;;3.80;99.90;;;;;;5033130;28;20175;-62
2023/10/18 02:03:35;;;;;;;11.27;9.90;;;3.80;99.90;;;;;;5033552;28;20203;-62
2023/10/18 02:06:06;;;;;;;15.80;11.00;;;3.80;99.90;;;;;;5032972;28;20210;-62
2023/10/18 02:08:35;;;;;;;12.97;10.40;;;3.90;99.90;;;;;;5033126;28;20183;-62
2023/10/18 02:11:07;;;;;;;13.33;11.03;;;3.90;99.90;;;;;;5033033;28;20199;-62
2023/10/18 02:13:33;;;;;;;12.57;10.67;;;3.90;99.90;;;;;;5015196;28;20206;-62
2023/10/18 02:15:59;;;;;;;12.93;10.40;;;3.80;99.90;;;;;;5032838;28;20176;-62
2023/10/18 02:18:26;;;;;;;12.27;10.13;;;3.80;99.90;;;;;;5032952;28;20559;-62
2023/10/18 02:20:53;;;;;;;15.70;10.80;;;3.70;99.90;;;;;;5032967;28;20632;-62
2023/10/18 02:23:21;;;;;;;12.67;10.03;;;3.70;99.90;;;;;;5015187;28;20187;-62
2023/10/18 02:25:48;;;;;;;12.13;10.17;;;3.80;99.90;;;;;;5018056;28;20179;-62
2023/10/18 02:28:23;;;;;;;11.47;9.93;;;3.80;99.90;;;;;;5036969;28;20183;-62
2023/10/18 02:33:44;;;;;;;11.40;9.83;;;3.70;99.90;;;;;;5037310;28;20191;-62
2023/10/18 02:36:11;;;;;;;11.40;9.53;;;3.70;99.90;;;;;;5036465;28;20190;-62
2023/10/18 02:38:38;;;;;;;13.10;10.00;;;3.70;99.90;;;;;;5018619;28;20268;-62
2023/10/18 02:43:47;;;;;;;12.53;9.97;;;3.70;99.90;;;;;;5036425;28;20629;-62
2023/10/18 02:46:25;;;;;;;12.53;10.30;;;3.70;99.90;;;;;;5036496;28;20171;-62
2023/10/18 02:48:52;;;;;;;15.37;10.43;;;3.70;99.90;;;;;;5036369;28;20660;-62
2023/10/18 02:51:24;;;;;;;13.30;10.40;;;3.70;99.90;;;;;;5018490;28;20570;-62
2023/10/18 02:53:53;;;;;;;12.83;10.23;;;3.70;99.90;;;;;;5018455;28;20194;-62
2023/10/18 02:56:33;;;;;;;12.77;10.30;;;3.70;99.90;;;;;;5018799;28;20703;-63
2023/10/18 02:58:59;;;;;;;11.80;10.57;;;3.70;99.90;;;;;;5036703;28;20514;-63
2023/10/18 03:01:28;;;;;;;11.73;10.50;;;3.70;99.90;;;;;;5018193;28;20587;-63
2023/10/18 03:03:56;;;;;;;13.83;10.23;;;3.50;99.90;;;;;;5018266;28;20230;-63
2023/10/18 03:06:27;;;;;;;14.33;9.97;;;3.50;99.90;;;;;;5035971;28;20214;-63
2023/10/18 03:08:58;;;;;;;15.83;10.47;;;3.50;99.90;;;;;;5018189;28;20183;-63
2023/10/18 03:11:25;;;;;;;12.30;10.77;;;3.50;99.90;;;;;;5036505;28;20184;-62
2023/10/18 03:13:51;;;;;;;11.77;10.10;;;3.50;99.90;;;;;;5036175;28;20187;-62
2023/10/18 03:16:27;;;;;;;14.00;10.63;;;3.50;99.90;;;;;;5035613;28;20193;-62
2023/10/18 03:18:53;;;;;;;15.03;10.37;;;3.50;99.90;;;;;;5018105;28;20650;-62
2023/10/18 03:21:22;;;;;;;12.33;10.60;;;3.50;99.90;;;;;;5018220;28;20209;-63
2023/10/18 03:23:51;;;;;;;17.00;10.67;;;3.40;99.90;;;;;;5035758;28;20194;-62
2023/10/18 03:26:34;;;;;;;13.20;11.37;;;3.40;99.90;;;;;;5035781;28;20262;-62
2023/10/18 03:29:11;;;;;;;11.80;10.47;;;3.40;99.90;;;;;;5036011;28;20163;-62
2023/10/18 03:31:41;;;;;;;12.53;10.57;;;3.40;99.90;;;;;;5035532;28;20221;-62
2023/10/18 03:34:41;;;;;;;12.97;10.07;;;3.40;99.90;;;;;;5035823;28;20256;-62
2023/10/18 03:36:59;;;;;;;13.47;9.70;;;3.30;99.90;;;;;;5031892;28;20671;-62
2023/10/18 03:39:25;;;;;;;16.40;10.70;;;3.40;99.90;;;;;;5035614;28;20183;-62
2023/10/18 03:41:52;;;;;;;11.10;9.97;;;3.40;99.90;;;;;;5017694;28;20175;-64
2023/10/18 03:44:26;;;;;;;13.83;10.13;;;3.30;99.90;;;;;;5035311;28;20197;-62
2023/10/18 03:47:03;;;;;;;11.87;9.93;;;3.40;99.90;;;;;;5035577;28;20578;-62
2023/10/18 03:49:38;;;;;;;11.27;10.07;;;3.40;99.90;;;;;;5017448;28;20206;-62
2023/10/18 03:55:04;;;;;;;12.77;10.30;;;3.30;99.90;;;;;;5035581;28;20202;-62
2023/10/18 03:57:37;;;;;;;11.73;10.00;;;3.30;99.90;;;;;;5035576;28;20615;-62
2023/10/18 04:00:48;;;;;;;13.73;10.67;;;3.30;99.90;;;;;;5035381;28;20160;-62
2023/10/18 04:02:59;;;;;;;11.13;9.53;;;3.30;99.90;;;;;;5029608;28;20194;-62
2023/10/18 04:08:07;;;;;;;11.77;9.70;;;3.20;99.90;;;;;;5035119;28;20160;-62
2023/10/18 04:10:36;;;;;;;12.40;10.20;;;3.20;99.90;;;;;;5035197;28;20656;-62
2023/10/18 04:13:11;;;;;;;10.97;9.80;;;3.20;99.90;;;;;;5034802;28;20175;-62
2023/10/18 04:15:41;;;;;;;13.10;10.20;;;3.10;99.90;;;;;;5034989;28;20159;-61
2023/10/18 04:20:33;;;;;;;10.67;9.57;;;3.10;99.90;;;;;;5034701;28;20187;-61
2023/10/18 04:23:02;;;;;;;11.20;10.03;;;3.10;99.90;;;;;;5034627;28;20693;-61
2023/10/18 04:25:31;;;;;;;10.70;9.43;;;3.10;99.90;;;;;;5034512;28;20188;-62
2023/10/18 04:27:58;;;;;;;10.70;9.63;;;3.10;99.90;;;;;;5035102;28;20521;-61
2023/10/18 04:30:29;;;;;;;10.77;9.60;;;3.10;99.90;;;;;;5035061;28;20230;-61
2023/10/18 04:33:12;;;;;;;13.33;10.40;;;3.10;99.90;;;;;;5034683;28;20167;-62
2023/10/18 04:35:45;;;;;;;10.87;9.57;;;3.10;99.90;;;;;;5034577;28;20232;-62
2023/10/18 04:38:37;;;;;;;13.73;9.90;;;3.20;99.90;;;;;;5034892;28;20170;-62
2023/10/18 04:43:32;;;;;;;13.13;10.47;;;3.30;99.90;;;;;;5034730;28;20666;-62
2023/10/18 04:46:14;;;;;;;11.97;9.47;;;3.30;99.90;;;;;;5034422;28;20643;-62
2023/10/18 04:54:09;;;;;;;11.73;10.00;;;3.40;99.90;;;;;;5034143;28;20191;-63
2023/10/18 04:56:38;;;;;;;13.63;10.27;;;3.30;99.90;;;;;;5016225;28;20170;-62
2023/10/18 05:04:34;;;;;;;11.63;10.13;;;3.30;99.90;;;;;;5033702;28;20618;-62
2023/10/18 05:07:14;;;;;;;12.93;10.00;;;3.30;99.90;;;;;;5034069;28;20167;-62
2023/10/18 05:09:43;;;;;;;13.07;10.63;;;3.30;99.90;;;;;;5034180;28;20230;-63
2023/10/18 05:14:43;;;;;;;12.20;10.40;;;3.20;99.90;;;;;;5033671;28;20191;-62
2023/10/18 05:17:22;;;;;;;12.33;10.40;;;3.30;99.90;;;;;;5033677;28;20557;-62
2023/10/18 05:19:50;;;;;;;13.63;9.43;;;3.30;99.90;;;;;;5033562;28;20246;-62
2023/10/18 05:22:19;;;;;;;15.00;9.90;;;3.40;99.90;;;;;;5033743;28;20179;-62
2023/10/18 05:24:57;;;;;;;10.43;9.17;;;3.40;99.90;;;;;;5015740;28;20248;-62
2023/10/18 05:27:27;;;;;;;13.60;9.87;;;3.50;99.90;;;;;;5015825;28;20190;-62
2023/10/18 05:29:57;;;;;;;11.00;9.10;;;3.60;99.90;;;;;;5033239;28;20230;-62
2023/10/18 05:37:50;;;;;;;12.43;9.30;;;3.80;99.90;;;;;;5033347;28;20640;-62
2023/10/18 05:43:04;;;;;;;12.23;9.10;;;3.80;99.90;;;;;;5034193;28;20225;-61
2023/10/18 05:45:33;;;;;;;9.87;8.97;;;3.80;99.90;;;;;;5034581;28;20242;-62
2023/10/18 05:48:03;;;;;;;10.73;9.27;;;3.80;99.90;;;;;;5033153;28;20183;-62
2023/10/18 05:50:35;;;;;;;9.50;8.53;;;3.80;99.90;;;;;;5016043;28;20206;-61
2023/10/18 05:53:10;;;;;;;9.80;8.80;;;3.80;99.90;;;;;;5033522;28;20258;-62
2023/10/18 05:55:38;;;;;;;11.80;8.87;;;3.80;99.90;;;;;;5016112;28;20624;-61
2023/10/18 05:58:07;;;;;;;11.13;8.50;;;3.80;99.90;;;;;;5033306;28;20216;-62
2023/10/18 06:00:37;;;;;;;9.73;8.47;;;3.80;99.90;;;;;;5037250;28;20588;-62
2023/10/18 06:03:03;;;;;;;11.37;8.80;;;3.70;99.90;;;;;;5036729;28;20183;-61
2023/10/18 06:05:33;;;;;;;10.23;8.23;;;3.70;99.90;;;;;;5036944;28;20183;-62
2023/10/18 06:07:59;;;;;;;10.93;8.93;;;3.70;99.90;;;;;;5019208;28;20194;-62
2023/10/18 06:10:26;;;;;;;10.47;8.47;;;3.70;99.90;;;;;;5036804;28;20203;-64
2023/10/18 06:13:10;;;;;;;12.30;8.07;;;3.70;99.90;;;;;;5036844;28;20167;-62
2023/10/18 06:15:39;;;;;;;8.93;8.03;;;3.70;99.90;;;;;;5019209;28;20175;-61
2023/10/18 06:18:09;;;;;;;10.13;9.13;;;3.80;99.90;;;;;;5036852;28;20179;-63
2023/10/18 06:20:38;;;;;;;10.63;8.50;;;3.70;99.90;;;;;;5037166;28;20166;-62
2023/10/18 06:23:36;;;;;;;11.60;8.90;;;3.70;99.90;;;;;;5036719;28;20186;-62
2023/10/18 06:25:57;;;;;;;10.13;9.03;;;3.70;99.90;;;;;;5036525;28;20697;-62
2023/10/18 06:28:26;;;;;;;15.67;9.40;;;3.60;99.90;;;;;;5018918;28;20183;-62
2023/10/18 06:30:56;;;;;;;11.70;9.47;;;3.70;99.90;;;;;;5036895;28;20187;-62
2023/10/18 06:33:23;;;;;;;10.23;9.17;;;3.80;99.90;;;;;;5036298;28;20199;-62
2023/10/18 06:35:52;;;;;;;10.93;8.43;;;3.80;99.90;;;;;;5036402;28;20168;-62
2023/10/18 06:45:15;;;;;;;13.00;9.23;;;4.00;99.90;;;;;;5035956;28;20199;-62
2023/10/18 06:47:44;;;;;;;13.47;9.17;;;4.00;99.90;;;;;;5036196;28;20162;-61
2023/10/18 06:50:11;;;;;;;10.77;8.80;;;4.00;99.90;;;;;;5036802;28;20218;-62
2023/10/18 06:52:44;;;;;;;10.40;8.90;;;4.00;99.90;;;;;;5036389;28;20179;-61
2023/10/18 06:55:17;;;;;;;11.07;9.10;;;4.00;99.90;;;;;;5036222;28;20219;-62
2023/10/18 06:57:42;;;;;;;11.53;9.87;;;4.00;99.90;;;;;;5018466;28;20270;-61
2023/10/18 07:00:12;;;;;;;12.73;10.00;;;4.00;99.90;;;;;;5018352;28;20612;-62
2023/10/18 07:02:38;;;;;;;10.50;9.40;;;3.90;99.90;;;;;;5027669;28;20672;-62
2023/10/18 07:05:04;;;;;;;12.07;9.60;;;4.00;99.90;;;;;;5033090;28;20702;-62
2023/10/18 07:07:31;;;;;;;13.07;10.43;;;4.10;99.90;;;;;;5035147;28;20168;-62
2023/10/18 07:09:58;;;;;;;10.97;9.87;;;4.10;99.90;;;;;;5033950;28;20199;-61
2023/10/18 07:12:26;;;;;;;12.80;10.37;;;4.10;99.90;;;;;;5034784;28;20224;-64
2023/10/18 07:14:55;;;;;;;10.83;9.43;;;4.30;99.90;;;;;;5035892;28;20194;-61
2023/10/18 07:17:24;;;;;;;12.30;10.27;;;4.30;99.90;;;;;;5035636;28;20628;-62
2023/10/18 07:19:56;;;;;;;10.40;9.40;;;4.40;99.90;;;;;;5035677;28;20179;-62
2023/10/18 07:22:39;;;;;;;20.77;9.90;;;4.50;99.90;;;;;;5035886;28;20167;-61
2023/10/18 07:25:08;;;;;;;13.73;9.70;;;4.60;99.90;;;;;;5017727;28;20205;-62
2023/10/18 07:27:37;;;;;;;11.57;9.47;;;4.70;99.90;;;;;;5035673;28;20175;-62
2023/10/18 07:30:14;;;;;;;12.70;10.57;;;4.80;99.90;;;;;;5035517;28;20722;-61
2023/10/18 07:32:41;;;;;;;10.60;9.37;;;4.90;99.90;;;;;;5035497;28;20233;-61
2023/10/18 07:35:11;;;;;;;12.03;9.83;;;5.00;99.90;;;;;;5035324;28;20230;-62
2023/10/18 07:37:41;;;;;;;11.73;10.23;;;5.10;99.90;;;;;;5017692;28;20201;-64
2023/10/18 07:40:10;;;;;;;13.53;9.37;;;5.20;99.90;;;;;;5035590;28;20209;-62
2023/10/18 07:42:49;;;;;;;11.40;9.23;;;5.30;99.90;;;;;;5035355;28;20546;-62
2023/10/18 07:45:15;;;;;;;14.47;10.70;;;5.50;99.90;;;;;;5035510;28;20199;-62
2023/10/18 07:47:41;;;;;;;10.87;9.77;;;5.60;99.90;;;;;;5035062;28;20249;-62
2023/10/18 07:52:54;;;;;;;13.67;10.17;;;5.80;99.90;;;;;;5035661;28;20166;-62
2023/10/18 07:55:24;;;;;;;12.13;10.50;;;6.10;99.90;;;;;;5030281;28;20204;-62
2023/10/18 07:57:50;;;;;;;12.90;10.07;;;6.10;99.90;;;;;;5030466;28;20237;-61
2023/10/18 08:00:23;;;;;;;11.93;10.60;;;6.30;99.90;;;;;;5035143;28;20250;-61
2023/10/18 08:02:50;;;;;;;11.57;9.20;;;6.40;99.90;;;;;;5034031;28;20160;-61
2023/10/18 08:05:19;;;;;;;12.70;10.67;;;6.50;99.90;;;;;;5034606;28;20221;-62
2023/10/18 08:07:51;;;;;;;11.87;10.57;;;6.60;99.90;;;;;;5035146;28;20625;-62
2023/10/18 08:10:20;;;;;;;13.73;11.43;;;6.70;99.90;;;;;;5034131;28;20244;-62
2023/10/18 08:15:36;;;;;;;13.93;11.10;;;6.90;99.90;;;;;;5035182;28;20162;-62
2023/10/18 08:26:12;;;;;;;17.70;12.70;;;7.30;99.90;;;;;;5034612;28;20531;-61
2023/10/18 08:28:42;;;;;;;13.17;11.63;;;7.40;99.90;;;;;;5033902;28;20191;-62
2023/10/18 08:31:34;;;;;;;14.93;10.57;;;7.50;99.90;;;;;;5034082;28;20640;-61
2023/10/18 08:34:15;;;;;;;15.57;10.60;;;7.60;99.90;;;;;;5015996;28;20210;-61
2023/10/18 08:36:44;;;;;;;12.60;10.63;;;7.60;99.90;;;;;;5016299;28;20290;-61
2023/10/18 08:39:11;;;;;;;12.57;10.10;;;7.70;99.90;;;;;;5034025;28;20198;-62
2023/10/18 08:41:49;;;;;;;12.37;10.67;;;7.80;99.90;;;;;;5034471;28;20175;-61
2023/10/18 08:44:22;;;;;;;13.20;10.13;;;7.90;99.90;;;;;;5034388;28;20241;-61
2023/10/18 08:47:03;;;;;;;11.33;10.10;;;8.00;99.90;;;;;;5034554;28;20213;-63
2023/10/18 08:49:32;;;;;;;11.67;9.97;;;8.10;99.90;;;;;;5034551;28;20503;-62
2023/10/18 08:52:08;;;;;;;29.07;14.23;;;8.20;99.90;;;;;;5034455;28;20620;-63
2023/10/18 08:54:42;;;;;;;21.03;16.80;;;8.30;99.90;;;;;;5016251;28;20545;-62
2023/10/18 08:57:11;;;;;;;30.33;27.03;;;8.30;99.90;;;;;;5033824;28;20176;-62
2023/10/18 08:59:48;;;;;;;19.63;16.40;;;8.40;99.90;;;;;;5016354;28;20190;-63
2023/10/18 09:02:19;;;;;;;14.30;12.53;;;8.50;99.90;;;;;;5033842;28;20205;-62
2023/10/18 09:04:52;;;;;;;23.77;21.17;;;8.60;99.90;;;;;;5034126;28;20187;-63
2023/10/18 09:07:22;;;;;;;19.17;16.50;;;8.70;99.90;;;;;;5016152;28;20175;-62
2023/10/18 09:09:55;;;;;;;15.87;14.27;;;8.70;99.90;;;;;;5033894;28;20211;-62
2023/10/18 09:13:32;;;;;;;13.27;11.03;;;8.80;99.90;;;;;;5034276;28;20155;-62
2023/10/18 09:17:56;;;;;;;13.80;12.37;;;8.90;99.90;;;;;;5033438;28;20583;-62
2023/10/18 09:20:26;;;;;;;14.13;12.73;;;9.00;99.90;;;;;;5033923;28;20229;-62
2023/10/18 09:22:54;;;;;;;10.33;8.40;;;9.20;99.90;;;;;;5033919;28;20179;-62
2023/10/18 09:25:33;;;;;;;13.07;8.17;;;9.40;99.90;;;;;;5033552;28;20317;-62
2023/10/18 09:28:10;;;;;;;9.13;7.73;;;9.70;99.90;;;;;;5033655;28;20535;-62
2023/10/18 09:30:36;;;;;;;16.00;10.93;;;10.00;99.90;;;;;;5033857;28;20195;-62
2023/10/18 09:33:04;;;;;;;15.30;10.37;;;10.30;99.90;;;;;;5032834;28;20167;-62
2023/10/18 09:35:32;;;;;;;12.85;8.90;;;10.60;99.90;;;;;;5015715;28;20183;-62
2023/10/18 09:38:07;;;;;;;12.20;8.63;;;10.90;99.90;;;;;;5024063;28;20214;-62
2023/10/18 09:40:37;;;;;;;11.55;8.48;;;11.00;99.90;;;;;;5033295;28;20564;-62
2023/10/18 09:43:04;;;;;;;10.13;7.77;;;11.10;99.90;;;;;;5033334;28;20256;-62
2023/10/18 09:45:30;;;;;;;15.77;12.52;;;11.10;99.90;;;;;;5032446;28;20164;-62
2023/10/18 09:47:58;;;;;;;19.92;17.60;;;11.10;99.90;;;;;;5031319;28;20171;-62
2023/10/18 09:50:28;;;;;;;9.07;7.88;;;11.10;99.90;;;;;;5033099;28;20199;-62
2023/10/18 09:52:56;;;;;;;14.73;10.73;;;11.10;99.90;;;;;;5033245;28;20156;-62
2023/10/18 09:55:28;;;;;;;13.75;10.10;;;11.30;99.90;;;;;;5032680;28;20193;-62
2023/10/18 09:58:04;;;;;;;11.18;9.27;;;11.50;99.90;;;;;;5032540;28;20334;-62
2023/10/18 10:00:47;;;;;;;11.82;10.57;;;11.80;99.90;;;;;;5025835;28;20669;-62
2023/10/18 10:03:24;;;;;;;12.93;9.35;;;12.00;99.90;;;;;;5032866;28;20170;-62
2023/10/18 10:05:51;;;;;;;12.70;8.82;;;12.20;99.90;;;;;;5033657;28;20247;-62
2023/10/18 10:08:23;;;;;;;9.77;5.90;;;12.40;99.90;;;;;;5015299;28;20189;-62
2023/10/18 10:11:04;;;;;;;9.88;5.93;;;12.50;99.90;;;;;;5033261;28;20201;-63
2023/10/18 10:16:27;;;;;;;6.60;5.38;;;12.60;99.90;;;;;;4991408;28;20252;-63
2023/10/18 10:18:54;;;;;;;5.63;5.10;;;12.60;99.90;;;;;;5027744;28;20179;-63
2023/10/18 10:21:21;;;;;;;6.43;5.13;;;12.70;99.90;;;;;;5033458;28;20175;-62
2023/10/18 10:24:06;;;;;;;38.80;8.65;;;12.70;99.90;;;;;;5033033;28;20587;-62
2023/10/18 10:26:35;;;;;;;4.38;3.97;;;12.70;99.90;;;;;;5016439;28;20255;-62
2023/10/18 10:32:05;;;;;;;5.15;4.30;;;12.70;99.90;;;;;;5032856;28;20191;-62
2023/10/18 10:34:41;;;;;;;7.30;6.60;;;12.80;99.90;;;;;;5014949;28;20290;-62
2023/10/18 10:37:27;;;;;;;8.23;5.00;;;12.80;99.90;;;;;;5014885;28;20213;-62
2023/10/18 10:40:36;;;;;;;4.93;4.35;;;12.80;99.90;;;;;;5029603;28;20191;-62
2023/10/18 10:43:09;;;;;;;5.38;4.38;;;12.70;99.90;;;;;;5015027;28;20175;-62
2023/10/18 10:48:36;;;;;;;5.40;4.70;;;12.60;99.90;;;;;;5035700;28;20167;-62
2023/10/18 10:53:58;;;;;;;5.65;4.65;;;12.50;99.90;;;;;;5019006;28;20191;-62
2023/10/18 10:56:27;;;;;;;4.43;4.03;;;12.50;99.90;;;;;;5018821;28;20179;-63
2023/10/18 11:01:43;;;;;;;5.80;3.80;;;12.60;99.90;;;;;;5036285;28;20599;-62
2023/10/18 11:04:25;;;;;;;5.43;4.13;;;12.70;99.90;;;;;;5035787;28;20297;-63
2023/10/18 11:07:03;;;;;;;6.18;4.47;;;12.70;99.90;;;;;;5036078;28;20170;-63
2023/10/18 11:09:42;;;;;;;5.05;4.53;;;12.70;99.90;;;;;;5018159;28;20610;-63
2023/10/18 11:12:34;;;;;;;6.40;4.10;;;12.80;99.90;;;;;;5027735;28;20237;-63
2023/10/18 11:15:04;;;;;;;4.20;3.80;;;12.80;99.90;;;;;;5018094;28;20290;-63
2023/10/18 11:17:35;;;;;;;4.10;3.70;;;12.80;99.90;;;;;;5035756;28;20218;-63
2023/10/18 11:20:30;;;;;;;5.15;4.05;;;12.90;99.90;;;;;;5035637;28;20183;-62
2023/10/18 11:22:58;;;;;;;7.20;3.88;;;13.00;99.90;;;;;;5017984;28;20171;-62
2023/10/18 11:25:33;;;;;;;6.78;4.30;;;13.30;99.90;;;;;;5035270;28;20207;-62
2023/10/18 11:28:20;;;;;;;5.93;3.90;;;13.50;99.90;;;;;;5017829;28;20198;-62
2023/10/18 11:30:53;;;;;;;5.68;3.83;;;13.70;99.90;;;;;;5004522;28;20578;-62
2023/10/18 11:33:46;;;;;;;4.70;3.88;;;13.70;99.90;;;;;;5016562;28;20211;-62
2023/10/18 11:36:18;;;;;;;4.18;3.78;;;13.70;99.90;;;;;;5003420;28;20299;-62
2023/10/18 11:41:34;;;;;;;3.60;3.25;;;13.60;99.90;;;;;;5028668;28;20218;-63
2023/10/18 11:44:27;;;;;;;5.10;3.67;;;13.70;99.90;;;;;;5017437;28;20290;-62
2023/10/18 11:47:00;;;;;;;5.07;4.00;;;13.80;99.90;;;;;;5017849;28;20326;-63
2023/10/18 11:50:01;;;;;;;5.57;3.63;;;13.70;99.90;;;;;;5034050;28;20166;-62
2023/10/18 11:52:30;;;;;;;4.65;3.88;;;13.80;99.90;;;;;;5010004;28;20179;-63
2023/10/18 11:55:20;;;;;;;4.40;3.47;;;14.10;99.90;;;;;;5016099;28;20298;-63
2023/10/18 11:57:53;;;;;;;4.10;3.70;;;14.40;99.90;;;;;;5013660;28;20195;-63
2023/10/18 12:00:35;;;;;;;4.50;3.53;;;14.80;99.90;;;;;;5033910;28;20190;-60
2023/10/18 12:03:05;;;;;;;3.63;3.33;;;15.10;99.90;;;;;;5016744;28;20186;-60
2023/10/18 12:05:34;;;;;;;3.83;3.30;;;15.50;99.90;;;;;;5034953;28;20195;-60
2023/10/18 12:08:13;;;;;;;3.85;3.50;;;15.60;99.90;;;;;;5034892;28;20186;-60
2023/10/18 12:10:42;;;;;;;4.10;3.60;;;15.70;99.90;;;;;;5015933;28;20207;-60
2023/10/18 12:13:12;;;;;;;3.40;3.10;;;15.80;99.90;;;;;;5035239;28;20248;-61
2023/10/18 12:15:45;;;;;;;5.50;3.50;;;15.80;99.90;;;;;;5017052;28;20553;-63
2023/10/18 12:18:15;;;;;;;4.45;3.38;;;15.70;99.90;;;;;;5018251;28;20166;-63
2023/10/18 12:20:44;;;;;;;3.90;3.50;;;15.80;99.90;;;;;;5016350;28;20678;-63
2023/10/18 12:23:20;;;;;;;3.50;3.20;;;15.90;99.90;;;;;;5034466;28;20171;-63
2023/10/18 12:25:59;;;;;;;8.90;3.50;;;16.00;99.90;;;;;;5034861;28;20187;-63
2023/10/18 12:28:29;;;;;;;4.05;3.20;;;16.00;99.90;;;;;;5017624;28;20197;-63
2023/10/18 12:30:55;;;;;;;4.88;3.10;;;16.30;99.90;;;;;;5016567;28;20211;-63
2023/10/18 12:33:34;;;;;;;3.40;3.10;;;16.20;99.90;;;;;;5016397;28;20187;-63
2023/10/18 12:36:00;;;;;;;4.38;3.95;;;16.20;99.90;;;;;;5034340;28;20151;-63
2023/10/18 12:38:32;;;;;;;4.85;3.30;;;16.10;99.90;;;;;;5034199;28;20217;-63
2023/10/18 12:41:06;;;;;;;5.70;3.72;;;15.90;99.90;;;;;;5034276;28;20533;-63
2023/10/18 12:43:37;;;;;;;6.15;3.55;;;15.90;99.90;;;;;;5016567;28;20210;-63
2023/10/18 12:46:11;;;;;;;3.58;3.17;;;15.80;99.90;;;;;;5016386;28;20193;-63
2023/10/18 12:48:37;;;;;;;3.33;3.00;;;15.90;99.90;;;;;;5016184;28;20175;-63
2023/10/18 12:51:08;;;;;;;8.23;3.70;;;15.90;99.90;;;;;;5016364;28;20203;-63
2023/10/18 12:53:38;;;;;;;6.03;2.80;;;15.80;99.90;;;;;;5032712;28;20201;-63
2023/10/18 12:58:55;;;;;;;3.65;3.17;;;15.60;99.90;;;;;;5034631;28;20246;-63
2023/10/18 13:04:07;;;;;;;3.60;3.30;;;15.40;99.90;;;;;;5033470;28;20206;-63
2023/10/18 13:06:44;;;;;;;4.88;3.45;;;15.30;99.90;;;;;;5016205;28;20713;-63
2023/10/18 13:09:23;;;;;;;5.65;3.33;;;15.20;99.90;;;;;;5046535;28;20210;-63
2023/10/18 13:12:07;;;;;;;3.40;3.10;;;15.20;99.90;;;;;;5015165;28;20214;-63
2023/10/18 13:14:39;;;;;;;5.03;3.30;;;15.10;99.90;;;;;;5009434;28;20675;-63
2023/10/18 13:17:10;;;;;;;4.80;3.40;;;15.00;99.90;;;;;;5015561;28;20184;-63
2023/10/18 13:19:45;;;;;;;4.80;3.45;;;14.90;99.90;;;;;;5015854;28;20179;-63
2023/10/18 13:22:18;;;;;;;3.22;2.92;;;14.90;99.90;;;;;;5014391;28;20237;-63
2023/10/18 13:24:45;;;;;;;4.90;3.70;;;14.80;99.90;;;;;;5016441;28;20199;-63
2023/10/18 13:27:17;;;;;;;4.10;3.28;;;14.80;99.90;;;;;;5016151;28;20301;-63
2023/10/18 13:29:49;;;;;;;3.20;2.90;;;14.90;99.90;;;;;;5015872;28;20171;-63
2023/10/18 13:32:26;;;;;;;4.05;3.17;;;14.90;99.90;;;;;;5015846;28;20182;-63
2023/10/18 13:34:54;;;;;;;4.53;3.33;;;14.90;99.90;;;;;;5048351;28;20282;-63
2023/10/18 13:37:23;;;;;;;3.25;3.05;;;15.00;99.90;;;;;;5015616;28;20195;-63
2023/10/18 13:39:53;;;;;;;3.72;3.05;;;15.10;99.90;;;;;;5015438;28;20625;-63
2023/10/18 13:42:40;;;;;;;5.68;3.30;;;15.20;99.90;;;;;;5015733;28;20191;-63
2023/10/18 13:45:09;;;;;;;4.70;3.05;;;15.30;99.90;;;;;;5015698;28;20293;-63
2023/10/18 13:47:46;;;;;;;3.60;3.30;;;15.30;99.90;;;;;;5014949;28;20190;-63
2023/10/18 13:50:17;;;;;;;3.15;2.92;;;15.20;99.90;;;;;;5015656;28;20218;-63
2023/10/18 13:52:46;;;;;;;4.00;3.35;;;15.20;99.90;;;;;;5015541;28;20670;-63
2023/10/18 13:55:14;;;;;;;5.28;3.42;;;15.10;99.90;;;;;;5033275;28;20679;-63
2023/10/18 13:57:40;;;;;;;3.17;2.92;;;15.00;99.90;;;;;;5033417;28;20647;-64
2023/10/18 14:00:09;;;;;;;5.50;3.65;;;14.90;99.90;;;;;;5033415;28;20202;-63
2023/10/18 14:02:38;;;;;;;5.07;3.42;;;14.80;99.90;;;;;;5033423;28;20175;-63
2023/10/18 14:05:10;;;;;;;5.85;3.28;;;14.80;99.90;;;;;;5015368;28;20206;-64
2023/10/18 14:07:36;;;;;;;5.38;3.10;;;14.80;99.90;;;;;;5033763;28;20526;-63
2023/10/18 14:10:19;;;;;;;3.50;3.05;;;14.80;99.90;;;;;;5034228;28;20232;-63
2023/10/18 14:12:48;;;;;;;3.30;3.00;;;14.70;99.90;;;;;;5033548;28;20170;-63
2023/10/18 14:15:19;;;;;;;3.55;3.25;;;14.70;99.90;;;;;;5015839;28;20199;-64
2023/10/18 14:17:52;;;;;;;4.43;3.28;;;14.70;99.90;;;;;;5033129;28;20531;-62
2023/10/18 14:20:25;;;;;;;4.55;3.10;;;14.60;99.90;;;;;;5035453;28;20187;-64
2023/10/18 14:22:57;;;;;;;3.50;3.20;;;14.50;99.90;;;;;;5037023;28;20183;-64
2023/10/18 14:25:24;;;;;;;3.50;3.20;;;14.50;99.90;;;;;;5036940;28;20197;-64
2023/10/18 14:27:51;;;;;;;4.55;3.22;;;14.40;99.90;;;;;;5037142;28;20175;-64
2023/10/18 14:30:18;;;;;;;3.08;2.88;;;14.40;99.90;;;;;;5019294;28;20614;-64
2023/10/18 14:32:44;;;;;;;2.83;2.63;;;14.30;99.90;;;;;;5037369;28;20163;-64
2023/10/18 14:35:18;;;;;;;4.00;3.25;;;14.30;99.90;;;;;;5018756;28;20206;-64